Airport Name : Eareckson As

Other Name : Eareckson As

ICAO : PASY

IATA : SYA

FAA : PSYA

Latitude : 52.712275

Longitude : 174.11362

Country : United States

Local Date and Time : 2/24/2018 6:02:00 AM

 

TAF (Terminal Aerodrome Forecast)

TAF PASY 241400Z 2414/2520 16010G15KT 9999 BKN030 610307 QNH3009INS BECMG 2418/2420 09025G35KT 6000 -SN SCT010 BKN020 620208 510004 QNH2985INS BECMG 2509/2510 24020G30KT 4800 -SN SCT010 BKN015 620159 510004 QNH2915INS BECMG 2516/2517 26040G50KT 9999 NSW SCT025 530005 QNH2950INS TX03/2503Z TNM02/2418Z

 

METAR (METeorological Aerodrome Report)

PASY 241552Z AUTO 11014KT 7SM FEW023 BKN040 BKN050 OVC065 00/M02 A3004 RMK AO2 RAB36E52 SLP177

PASY 241536Z AUTO 13018G24KT 6SM -RA FEW021 SCT030 OVC060 00/M03 A3005 RMK AO2 RAB36 SLP180

PASY 241458Z AUTO 13014KT 7SM FEW021 OVC070 01/M03 A3008 RMK AO2 SLP190 T00071030 57036 $

PASY 241358Z AUTO 14009KT 7SM FEW024 SCT040 BKN095 00/M04 A3012 RMK AO2 PRESFR SLP204 T00031040 $

PASY 241338Z AUTO 14010KT 7SM SCT026 OVC037 00/M04 A3014 RMK AO2 SLP210 $

PASY 241328Z AUTO 15011KT 7SM BKN028 OVC037 00/M04 A3014 RMK AO2 SLP210

PASY 241258Z AUTO 17007KT 7SM SCT026 OVC035 00/M04 A3016 RMK AO2 SLP217 T00021044 $

PASY 241248Z AUTO 17007KT 7SM FEW027 BKN035 OVC044 00/M05 A3016 RMK AO2 SLP217

PASY 241228Z AUTO 17008KT 7SM BKN029 BKN036 OVC044 00/M05 A3017 RMK AO2 SLP221

PASY 241218Z AUTO 18010KT 7SM BKN029 OVC037 00/M05 A3018 RMK AO2 CIG 029V034 SLP224